Time;durP1;ratioP1;P1;durP2;ratioP2;P2;SDS_P1;SDS_P2;PMS_P1;PMS_P2;Temp;Humidity;BMP_temperature;BMP_pressure;BME280_temperature;BME280_humidity;BME280_pressure;Samples;Min_cycle;Max_cycle;Signal;HPM_P1;HPM_P2
2021/09/08 00:00:51;;;;;;;17.50;10.20;;;;;;;9.53;90.62;95946.97;5021773;28;20683;-74
2021/09/08 00:03:17;;;;;;;21.98;11.30;;;;;;;9.43;90.56;95944.28;5012666;28;20188;-73
2021/09/08 00:05:43;;;;;;;18.27;10.23;;;;;;;9.34;90.95;95945.78;5030082;28;20092;-73
2021/09/08 00:08:08;;;;;;;17.58;10.40;;;;;;;9.15;91.26;95938.28;5009939;28;20033;-74
2021/09/08 00:10:34;;;;;;;22.17;11.40;;;;;;;9.14;91.84;95935.91;5022318;28;20543;-73
2021/09/08 00:12:59;;;;;;;20.05;11.18;;;;;;;9.15;90.57;95927.75;5017058;28;20053;-74
2021/09/08 00:15:25;;;;;;;22.95;11.52;;;;;;;9.10;91.83;95930.34;5020780;28;20112;-74
2021/09/08 00:17:50;;;;;;;19.95;11.32;;;;;;;9.15;90.70;95933.03;5021840;28;20080;-74
2021/09/08 00:20:17;;;;;;;18.85;10.82;;;;;;;9.22;90.84;95921.50;5023898;28;20716;-74
2021/09/08 00:22:44;;;;;;;22.42;10.38;;;;;;;9.14;90.83;95920.16;5022257;28;20068;-74
2021/09/08 00:25:10;;;;;;;19.73;10.93;;;;;;;9.13;91.57;95914.06;5026604;28;20048;-74
2021/09/08 00:27:36;;;;;;;20.90;11.00;;;;;;;9.13;91.60;95914.06;5029516;28;20622;-74
2021/09/08 00:30:02;;;;;;;17.80;10.57;;;;;;;9.11;91.90;95910.16;5029576;28;20049;-73
2021/09/08 00:32:27;;;;;;;19.85;11.02;;;;;;;8.98;90.97;95911.34;5024222;28;20046;-74
2021/09/08 00:34:53;;;;;;;18.73;11.32;;;;;;;8.80;91.66;95915.88;5016200;28;20037;-74
2021/09/08 00:37:18;;;;;;;20.38;11.18;;;;;;;8.82;91.76;95919.06;5026266;28;20041;-72
2021/09/08 00:39:44;;;;;;;18.73;10.55;;;;;;;8.98;90.84;95903.47;5028733;28;20048;-72
2021/09/08 00:42:15;;;;;;;18.65;10.25;;;;;;;8.98;90.49;95906.09;5027441;28;20050;-74
2021/09/08 00:44:41;;;;;;;21.42;10.07;;;;;;;9.02;90.51;95896.66;5030243;28;20684;-74
2021/09/08 00:47:07;;;;;;;16.63;10.00;;;;;;;9.05;90.60;95898.81;5029140;28;20040;-73
2021/09/08 00:49:33;;;;;;;20.50;11.10;;;;;;;9.01;90.40;95895.09;5021451;28;20049;-73
2021/09/08 00:52:03;;;;;;;19.00;10.88;;;;;;;8.88;91.44;95890.22;5019568;28;20038;-72
2021/09/08 00:54:29;;;;;;;20.10;11.32;;;;;;;8.78;92.06;95881.22;5029901;28;20038;-74
2021/09/08 00:56:57;;;;;;;20.05;11.55;;;;;;;8.79;91.37;95885.44;5029145;28;20095;-74
2021/09/08 00:59:23;;;;;;;20.15;10.95;;;;;;;8.70;91.45;95873.81;5029052;28;20048;-73
2021/09/08 01:01:48;;;;;;;20.00;10.55;;;;;;;8.70;91.38;95879.03;5027590;28;20049;-74
2021/09/08 01:04:14;;;;;;;17.60;10.52;;;;;;;8.69;91.17;95877.47;5029713;28;20049;-74
2021/09/08 01:06:41;;;;;;;18.42;10.73;;;;;;;8.58;91.42;95878.41;5028605;28;20637;-74
2021/09/08 01:09:08;;;;;;;19.08;10.38;;;;;;;8.56;91.27;95883.09;5027932;28;20110;-73
2021/09/08 01:11:34;;;;;;;20.08;10.95;;;;;;;8.57;91.86;95882.06;5018698;28;20050;-73
2021/09/08 01:14:00;;;;;;;21.05;10.95;;;;;;;8.47;92.08;95877.50;5009646;28;20048;-73
2021/09/08 01:16:25;;;;;;;21.77;10.65;;;;;;;8.47;92.08;95880.91;5026787;28;20034;-74
2021/09/08 01:18:52;;;;;;;18.90;10.88;;;;;;;8.59;91.12;95885.22;5020851;28;20076;-74
2021/09/08 01:21:17;;;;;;;19.33;10.43;;;;;;;8.56;91.61;95883.09;5029192;28;20112;-74
2021/09/08 01:23:43;;;;;;;20.40;10.82;;;;;;;8.53;91.60;95867.88;5026792;28;20144;-74
2021/09/08 01:26:09;;;;;;;19.48;10.45;;;;;;;8.57;91.36;95879.44;5011745;28;20521;-74
2021/09/08 01:28:35;;;;;;;22.25;10.70;;;;;;;8.57;90.62;95880.22;5027442;28;20110;-76
2021/09/08 01:31:02;;;;;;;20.52;10.52;;;;;;;8.44;91.54;95876.16;5019002;28;20573;-75
2021/09/08 01:33:28;;;;;;;18.65;10.38;;;;;;;8.40;91.32;95875.03;5026010;28;20045;-76
2021/09/08 01:35:54;;;;;;;21.33;10.18;;;;;;;8.36;91.38;95876.59;5027926;28;20053;-75
2021/09/08 01:38:20;;;;;;;19.48;10.13;;;;;;;8.39;91.22;95868.22;5028043;28;20038;-75
2021/09/08 01:40:45;;;;;;;19.83;10.82;;;;;;;8.44;91.05;95870.91;5015858;28;20496;-76
2021/09/08 01:43:11;;;;;;;18.65;10.63;;;;;;;8.19;91.86;95873.22;5024646;28;20049;-76
2021/09/08 01:45:41;;;;;;;17.55;10.32;;;;;;;8.20;92.02;95869.56;5027172;28;20049;-76
2021/09/08 01:48:08;;;;;;;19.17;10.15;;;;;;;8.21;91.92;95871.16;5027939;28;20049;-76
2021/09/08 01:50:34;;;;;;;19.60;10.02;;;;;;;8.19;91.46;95867.97;5020976;28;20116;-75
2021/09/08 01:53:00;;;;;;;18.60;10.35;;;;;;;8.21;91.44;95865.94;5024605;28;20767;-75
2021/09/08 01:55:26;;;;;;;20.25;10.10;;;;;;;8.17;91.36;95859.59;5027345;28;20098;-75
2021/09/08 01:57:51;;;;;;;19.98;10.20;;;;;;;8.13;91.71;95857.47;5028095;28;20045;-75
2021/09/08 02:00:17;;;;;;;18.90;9.80;;;;;;;8.26;91.69;95858.09;5027655;28;20073;-75
2021/09/08 02:02:43;;;;;;;18.48;10.48;;;;;;;8.20;91.69;95864.34;5026382;28;20438;-75
2021/09/08 02:05:10;;;;;;;18.95;10.05;;;;;;;8.05;92.04;95860.50;5028637;28;20419;-75
2021/09/08 02:07:36;;;;;;;21.20;10.10;;;;;;;7.84;92.57;95856.03;5027559;28;20095;-75
2021/09/08 02:10:03;;;;;;;21.35;11.00;;;;;;;8.00;93.33;95857.03;5010826;28;20041;-75
2021/09/08 02:12:28;;;;;;;17.75;10.68;;;;;;;8.07;91.81;95853.16;5021162;28;20518;-75
2021/09/08 02:14:54;;;;;;;18.27;10.25;;;;;;;7.95;92.40;95852.53;5028513;28;20046;-75
2021/09/08 02:17:19;;;;;;;18.58;10.68;;;;;;;7.94;91.21;95843.88;5027295;28;20052;-76
2021/09/08 02:19:45;;;;;;;18.63;10.32;;;;;;;8.12;91.49;95848.00;5016794;28;20049;-76
2021/09/08 02:22:10;;;;;;;18.48;10.65;;;;;;;8.08;91.46;95849.53;5024267;28;20064;-75
2021/09/08 02:24:36;;;;;;;23.52;10.63;;;;;;;8.06;91.45;95843.75;5027153;28;20041;-75
2021/09/08 02:27:02;;;;;;;17.35;9.77;;;;;;;8.09;91.62;95843.25;5026440;28;20077;-75
2021/09/08 02:29:28;;;;;;;19.48;10.07;;;;;;;7.98;92.23;95841.53;5026403;28;20103;-75
2021/09/08 02:31:53;;;;;;;17.80;9.95;;;;;;;8.01;92.49;95845.50;5023776;28;20558;-76
2021/09/08 02:34:19;;;;;;;18.58;10.13;;;;;;;8.00;91.98;95838.69;5022700;28;20038;-76
2021/09/08 02:36:44;;;;;;;19.35;10.10;;;;;;;8.00;91.76;95842.06;5028426;28;20049;-76
2021/09/08 02:39:10;;;;;;;19.13;10.60;;;;;;;8.00;91.88;95839.47;5026318;28;20503;-75
2021/09/08 02:41:36;;;;;;;20.20;10.60;;;;;;;7.89;91.05;95835.16;5019090;28;20050;-75
2021/09/08 02:44:01;;;;;;;17.42;9.98;;;;;;;7.75;91.76;95838.13;5027121;28;20053;-76
2021/09/08 02:46:27;;;;;;;18.17;10.10;;;;;;;7.68;92.76;95832.25;5028377;28;20073;-75
2021/09/08 02:48:52;;;;;;;18.23;10.38;;;;;;;7.74;92.24;95836.56;5014876;28;20092;-75
2021/09/08 02:51:18;;;;;;;20.88;11.07;;;;;;;7.91;91.67;95835.69;5008316;28;20057;-76
2021/09/08 02:53:44;;;;;;;18.27;9.75;;;;;;;7.84;92.07;95827.22;5015519;28;20098;-75
2021/09/08 02:56:09;;;;;;;19.20;10.73;;;;;;;7.77;91.99;95830.81;5026799;28;20422;-75
2021/09/08 02:58:35;;;;;;;19.02;9.95;;;;;;;7.70;92.44;95830.22;5025332;28;20412;-75
2021/09/08 03:01:01;;;;;;;20.25;10.25;;;;;;;7.76;92.36;95818.75;5014241;28;20049;-75
2021/09/08 03:03:27;;;;;;;17.60;9.75;;;;;;;7.73;91.89;95824.47;5011149;28;20052;-75
2021/09/08 03:05:52;;;;;;;19.55;10.30;;;;;;;7.77;91.63;95820.34;5027927;28;20064;-76
2021/09/08 03:08:18;;;;;;;18.73;10.77;;;;;;;7.75;92.94;95817.16;5023441;28;20061;-74
2021/09/08 03:10:44;;;;;;;20.30;10.60;;;;;;;7.80;92.06;95817.22;5027798;28;20045;-75
2021/09/08 03:13:12;;;;;;;18.08;9.90;;;;;;;7.77;92.66;95820.34;5026787;28;20095;-74
2021/09/08 03:15:38;;;;;;;18.88;10.77;;;;;;;7.65;92.30;95818.88;5001137;28;20423;-75
2021/09/08 03:18:05;;;;;;;19.65;10.77;;;;;;;7.62;92.09;95812.28;5017694;28;20038;-76
2021/09/08 03:20:30;;;;;;;21.77;10.25;;;;;;;7.64;92.55;95815.44;5007983;28;20049;-75
2021/09/08 03:22:56;;;;;;;20.02;10.02;;;;;;;7.73;91.43;95808.75;5015554;28;20045;-75
2021/09/08 03:25:21;;;;;;;18.98;10.13;;;;;;;7.70;92.06;95814.50;5027790;28;20541;-75
2021/09/08 03:27:46;;;;;;;17.90;10.05;;;;;;;7.56;91.96;95813.25;5027048;28;20635;-75
2021/09/08 03:30:12;;;;;;;19.67;10.70;;;;;;;7.55;92.10;95807.22;5024210;28;20123;-75
2021/09/08 03:32:38;;;;;;;17.77;10.10;;;;;;;7.62;92.29;95807.06;5016783;28;20530;-76
2021/09/08 03:35:04;;;;;;;20.05;10.40;;;;;;;7.63;92.49;95813.88;5031645;28;20502;-76
2021/09/08 03:37:29;;;;;;;18.42;10.70;;;;;;;7.64;92.68;95810.19;5029589;28;20038;-76
2021/09/08 03:39:56;;;;;;;22.10;10.32;;;;;;;7.66;92.74;95808.16;5025341;28;20052;-76
2021/09/08 03:42:24;;;;;;;18.83;10.30;;;;;;;7.61;91.93;95810.69;5012418;28;20100;-76
2021/09/08 03:44:50;;;;;;;19.63;10.68;;;;;;;7.71;92.16;95805.56;5031477;28;20816;-75
2021/09/08 03:47:15;;;;;;;20.20;10.73;;;;;;;7.67;91.99;95803.69;5030505;28;20112;-75
2021/09/08 03:49:45;;;;;;;19.08;10.02;;;;;;;7.74;91.42;95805.13;5018888;28;20042;-75
2021/09/08 03:52:20;;;;;;;16.60;10.10;;;;;;;7.58;91.94;95811.19;5011553;28;20045;-75
2021/09/08 03:54:46;;;;;;;16.58;9.80;;;;;;;7.49;92.67;95813.44;5031341;28;20041;-74
2021/09/08 03:57:11;;;;;;;18.17;10.57;;;;;;;7.44;93.04;95806.31;5031689;28;20844;-74
2021/09/08 03:59:39;;;;;;;19.27;10.30;;;;;;;7.65;91.96;95806.56;5029221;28;20041;-75
2021/09/08 04:02:04;;;;;;;21.52;10.05;;;;;;;7.59;92.62;95807.53;5027301;28;20120;-75
2021/09/08 04:04:30;;;;;;;17.92;10.55;;;;;;;7.57;92.65;95805.16;5029873;28;20049;-74
2021/09/08 04:06:56;;;;;;;20.48;10.85;;;;;;;7.53;92.52;95808.47;5031130;28;20046;-75
2021/09/08 04:09:21;;;;;;;21.20;11.27;;;;;;;7.45;93.14;95802.63;5025242;28;20034;-75
2021/09/08 04:11:47;;;;;;;23.17;11.50;;;;;;;7.52;93.58;95806.91;5011107;28;20058;-75
2021/09/08 04:14:13;;;;;;;19.35;10.48;;;;;;;7.45;93.88;95807.09;5027752;28;20415;-75
2021/09/08 04:16:38;;;;;;;18.80;10.52;;;;;;;7.40;93.98;95805.19;5030571;28;20099;-75
2021/09/08 04:19:04;;;;;;;18.90;10.20;;;;;;;7.33;93.47;95803.78;5021519;28;20037;-74
2021/09/08 04:21:29;;;;;;;21.00;11.07;;;;;;;7.37;94.52;95805.69;5029510;28;20042;-75
2021/09/08 04:23:55;;;;;;;20.63;10.75;;;;;;;7.48;92.89;95800.56;5027827;28;20050;-75
2021/09/08 04:26:21;;;;;;;18.83;10.68;;;;;;;7.39;93.26;95798.38;5030669;28;20060;-75
2021/09/08 04:28:47;;;;;;;20.35;11.02;;;;;;;7.34;93.39;95790.47;5029691;28;20471;-74
2021/09/08 04:31:12;;;;;;;21.52;11.18;;;;;;;7.40;94.01;95794.72;5029305;28;20069;-74
2021/09/08 04:33:38;;;;;;;20.00;11.40;;;;;;;7.42;93.68;95795.25;5023399;28;20091;-74
2021/09/08 04:36:04;;;;;;;23.73;10.90;;;;;;;7.49;93.34;95796.94;5030268;28;20049;-75
2021/09/08 04:38:29;;;;;;;18.33;10.82;;;;;;;7.50;92.40;95793.25;5028694;28;20084;-75
2021/09/08 04:40:55;;;;;;;21.02;10.80;;;;;;;7.35;93.36;95792.03;5024971;28;20045;-75
2021/09/08 04:43:21;;;;;;;20.33;10.65;;;;;;;7.41;93.19;95796.31;5021773;28;20049;-74
2021/09/08 04:45:47;;;;;;;21.20;11.35;;;;;;;7.45;92.31;95797.41;5029182;28;20095;-75
2021/09/08 04:48:12;;;;;;;19.73;10.13;;;;;;;7.51;92.34;95789.63;5030392;28;20077;-76
2021/09/08 04:50:38;;;;;;;17.77;10.38;;;;;;;7.44;92.96;95787.97;5022633;28;20087;-76
2021/09/08 04:53:03;;;;;;;19.88;11.32;;;;;;;7.51;92.58;95789.63;5025846;28;20049;-76
2021/09/08 04:55:29;;;;;;;18.98;10.73;;;;;;;7.42;93.03;95797.09;5011841;28;20045;-76
2021/09/08 04:57:55;;;;;;;18.58;10.82;;;;;;;7.42;92.90;95790.03;5030048;28;20427;-76
2021/09/08 05:00:20;;;;;;;21.40;10.95;;;;;;;7.31;93.21;95790.91;5025246;28;20073;-74
2021/09/08 05:02:46;;;;;;;21.35;11.13;;;;;;;7.44;93.62;95790.59;5028032;28;20614;-74
2021/09/08 05:05:11;;;;;;;20.13;11.30;;;;;;;7.41;93.61;95796.31;5028971;28;20049;-75
2021/09/08 05:07:37;;;;;;;21.05;10.25;;;;;;;7.43;93.65;95799.47;5026900;28;20069;-74
2021/09/08 05:10:03;;;;;;;20.17;10.75;;;;;;;7.43;93.27;95794.25;5010377;28;20473;-75
2021/09/08 05:12:28;;;;;;;21.52;11.60;;;;;;;7.40;93.74;95804.41;5027938;28;20055;-75
2021/09/08 05:14:54;;;;;;;24.05;11.40;;;;;;;7.38;95.05;95796.78;5011286;28;20049;-74
2021/09/08 05:17:19;;;;;;;22.58;11.80;;;;;;;7.44;94.29;95801.06;5027380;28;20750;-74
2021/09/08 05:19:45;;;;;;;22.40;12.40;;;;;;;7.43;94.66;95799.47;5028619;28;20054;-75
2021/09/08 05:22:10;;;;;;;21.80;11.20;;;;;;;7.45;94.74;95807.88;5026025;28;20124;-75
2021/09/08 05:24:36;;;;;;;21.48;11.70;;;;;;;7.57;94.65;95809.59;5028619;28;20511;-76
2021/09/08 05:27:01;;;;;;;23.15;11.63;;;;;;;7.68;94.10;95800.81;5026535;28;20046;-76
2021/09/08 05:29:27;;;;;;;21.63;11.75;;;;;;;7.68;94.26;95811.31;5029461;28;20038;-75
2021/09/08 05:31:52;;;;;;;19.95;11.85;;;;;;;7.62;95.18;95807.81;5016181;28;20046;-75
2021/09/08 05:34:18;;;;;;;22.83;11.60;;;;;;;7.68;95.22;95805.28;5009691;28;20042;-75
2021/09/08 05:36:43;;;;;;;19.52;11.90;;;;;;;7.91;94.70;95806.88;5021688;28;20527;-75
2021/09/08 05:39:09;;;;;;;27.58;11.63;;;;;;;7.97;94.10;95808.50;5010285;28;20388;-75
2021/09/08 05:41:34;;;;;;;23.55;12.38;;;;;;;8.04;94.23;95806.47;5026770;28;20041;-75
2021/09/08 05:44:02;;;;;;;24.45;11.70;;;;;;;8.09;94.09;95811.78;5027777;28;20049;-75
2021/09/08 05:46:28;;;;;;;21.77;12.07;;;;;;;8.20;94.23;95812.69;5029292;28;20058;-75
2021/09/08 05:48:53;;;;;;;23.75;11.68;;;;;;;8.25;94.93;95811.97;5022526;28;20197;-74
2021/09/08 05:51:18;;;;;;;24.40;12.20;;;;;;;8.27;95.13;95805.41;5025408;28;20052;-75
2021/09/08 05:53:44;;;;;;;20.38;12.18;;;;;;;8.47;94.16;95812.72;5015877;28;20197;-75
2021/09/08 05:56:09;;;;;;;22.10;12.68;;;;;;;8.47;94.78;95811.94;5029453;28;20049;-75
2021/09/08 05:58:35;;;;;;;21.95;12.50;;;;;;;8.48;96.06;95814.31;5027985;28;20041;-75
2021/09/08 06:01:00;;;;;;;25.35;13.68;;;;;;;8.56;96.06;95809.66;5025159;28;20049;-76
2021/09/08 06:03:26;;;;;;;24.98;13.40;;;;;;;8.64;96.24;95788.22;5018742;28;20044;-75
2021/09/08 06:05:51;;;;;;;25.08;13.10;;;;;;;8.83;95.86;95805.19;5019805;28;20038;-75
2021/09/08 06:08:17;;;;;;;23.95;12.75;;;;;;;8.90;95.31;95793.69;5024544;28;20495;-74
2021/09/08 06:10:43;;;;;;;39.33;19.38;;;;;;;9.10;98.76;95793.03;5027795;28;20049;-75
2021/09/08 06:13:08;;;;;;;30.50;15.95;;;;;;;9.14;96.34;95794.13;5018500;28;20052;-75
2021/09/08 06:15:34;;;;;;;32.33;16.05;;;;;;;9.18;96.83;95790.72;5026858;28;20068;-75
2021/09/08 06:18:02;;;;;;;35.47;16.88;;;;;;;9.26;97.75;95786.81;5025846;28;20045;-76
2021/09/08 06:20:29;;;;;;;47.03;19.02;;;;;;;9.40;99.34;95791.63;5018104;28;20499;-75
2021/09/08 06:22:55;;;;;;;37.78;17.27;;;;;;;9.48;98.86;95783.25;5019658;28;20057;-75
2021/09/08 06:25:21;;;;;;;37.90;18.38;;;;;;;9.51;98.41;95788.81;5028508;28;20049;-76
2021/09/08 06:27:46;;;;;;;35.10;17.80;;;;;;;9.64;99.57;95781.50;5020227;28;20507;-74
2021/09/08 06:30:12;;;;;;;36.10;18.95;;;;;;;9.70;99.57;95780.47;5025860;28;20071;-75
2021/09/08 06:32:37;;;;;;;35.83;18.33;;;;;;;9.83;99.61;95771.34;5015387;28;20042;-74
2021/09/08 06:35:03;;;;;;;43.97;19.20;;;;;;;9.87;99.47;95773.19;5027345;28;20461;-75
2021/09/08 06:37:29;;;;;;;36.83;19.90;;;;;;;10.23;99.78;95773.28;5028327;28;20049;-74
2021/09/08 06:39:54;;;;;;;45.65;19.90;;;;;;;10.41;98.29;95773.84;5026833;28;20045;-75
2021/09/08 06:42:20;;;;;;;37.10;20.48;;;;;;;10.67;98.88;95773.88;5024216;28;20554;-73
2021/09/08 06:44:49;;;;;;;35.05;18.90;;;;;;;10.68;98.41;95771.00;5026382;28;20095;-73
2021/09/08 06:47:16;;;;;;;43.88;20.17;;;;;;;10.87;99.28;95771.25;5027769;28;20038;-73
2021/09/08 06:49:41;;;;;;;35.28;19.08;;;;;;;10.94;98.15;95764.94;5022811;28;20114;-73
2021/09/08 06:52:07;;;;;;;32.13;17.13;;;;;;;10.98;97.90;95766.00;5020601;28;20092;-72
2021/09/08 06:54:32;;;;;;;32.70;18.45;;;;;;;11.08;97.55;95773.88;5020233;28;20052;-72
2021/09/08 06:56:58;;;;;;;35.63;18.42;;;;;;;11.29;96.77;95765.91;5027683;28;20125;-72
2021/09/08 06:59:23;;;;;;;36.38;16.90;;;;;;;11.41;96.33;95763.78;5028155;28;20044;-72
2021/09/08 07:01:49;;;;;;;36.72;17.67;;;;;;;11.52;96.65;95762.72;5024284;28;20091;-72
2021/09/08 07:04:14;;;;;;;30.85;17.67;;;;;;;11.88;95.42;95765.22;5026992;28;20455;-72
2021/09/08 07:06:40;;;;;;;36.65;17.60;;;;;;;12.30;92.93;95755.25;5025132;28;20590;-71
2021/09/08 07:09:05;;;;;;;34.28;16.48;;;;;;;12.39;92.77;95758.09;5024341;28;20049;-70
2021/09/08 07:11:31;;;;;;;28.02;16.08;;;;;;;12.37;92.86;95742.53;5016243;28;20045;-72
2021/09/08 07:13:56;;;;;;;30.33;15.93;;;;;;;12.18;92.97;95750.28;5024261;28;20141;-72
2021/09/08 07:16:22;;;;;;;28.23;15.77;;;;;;;12.19;94.02;95740.53;5026869;28;20573;-74
2021/09/08 07:18:47;;;;;;;32.75;16.42;;;;;;;12.19;94.45;95741.31;5022538;28;20042;-75
2021/09/08 07:21:13;;;;;;;35.17;16.52;;;;;;;12.22;93.93;95745.28;5023727;28;20038;-75
2021/09/08 07:23:38;;;;;;;34.17;16.00;;;;;;;12.36;93.06;95740.16;5021074;28;20057;-78
2021/09/08 07:26:04;;;;;;;31.77;16.17;;;;;;;12.40;93.96;95746.47;5030625;28;20045;-75
2021/09/08 07:28:30;;;;;;;29.05;16.20;;;;;;;12.49;93.44;95744.81;5028527;28;20116;-76
2021/09/08 07:30:55;;;;;;;27.27;15.10;;;;;;;12.41;94.34;95737.47;5029495;28;20092;-75
2021/09/08 07:33:22;;;;;;;32.03;15.15;;;;;;;12.43;94.10;95745.94;5011389;28;20128;-77
2021/09/08 07:35:48;;;;;;;28.15;15.80;;;;;;;12.73;92.87;95738.81;5013728;28;20057;-74
2021/09/08 07:38:18;;;;;;;25.88;15.70;;;;;;;12.94;91.02;95740.25;5030454;28;20045;-75
2021/09/08 07:40:45;;;;;;;26.33;14.32;;;;;;;13.01;92.74;95745.19;5023942;28;20062;-75
2021/09/08 07:43:11;;;;;;;29.83;15.15;;;;;;;13.09;91.25;95746.44;5001033;28;20579;-75
2021/09/08 07:45:36;;;;;;;25.77;13.50;;;;;;;13.26;90.89;95752.09;5030078;28;20045;-76
2021/09/08 07:48:02;;;;;;;24.75;14.05;;;;;;;13.19;92.17;95751.63;5028589;28;20069;-75
2021/09/08 07:50:28;;;;;;;26.80;13.68;;;;;;;13.62;89.56;95742.97;5025577;28;20045;-76
2021/09/08 07:52:54;;;;;;;24.25;14.30;;;;;;;13.85;89.23;95751.97;5023095;28;20052;-76
2021/09/08 07:55:19;;;;;;;26.15;14.02;;;;;;;13.66;88.73;95749.28;5027396;28;20048;-75
2021/09/08 07:57:45;;;;;;;22.58;13.07;;;;;;;13.67;88.63;95746.34;5013332;28;20527;-77
2021/09/08 08:00:11;;;;;;;25.08;13.55;;;;;;;13.82;88.21;95748.03;5029946;28;20060;-75
2021/09/08 08:02:44;;;;;;;28.67;13.52;;;;;;;13.96;88.13;95742.81;5010619;28;20056;-74
2021/09/08 08:05:11;;;;;;;28.65;13.93;;;;;;;14.03;88.52;95737.97;5028536;28;20120;-75
2021/09/08 08:07:36;;;;;;;26.63;13.55;;;;;;;14.34;87.06;95732.25;5010637;28;20042;-75
2021/09/08 08:10:02;;;;;;;25.77;13.25;;;;;;;14.07;88.19;95737.41;5028660;28;20052;-75
2021/09/08 08:12:29;;;;;;;25.25;12.57;;;;;;;14.01;87.91;95736.69;5017332;28;20038;-79
2021/09/08 08:14:54;;;;;;;25.52;13.35;;;;;;;13.95;89.21;95724.59;5032221;28;20045;-78
2021/09/08 08:17:20;;;;;;;21.88;13.15;;;;;;;13.97;90.28;95733.81;5031044;28;20590;-78
2021/09/08 08:19:47;;;;;;;26.23;12.48;;;;;;;13.98;89.56;95735.41;5023514;28;20054;-77
2021/09/08 08:22:16;;;;;;;24.27;12.48;;;;;;;13.98;90.14;95738.03;5020976;28;20041;-75
2021/09/08 08:24:42;;;;;;;21.70;12.90;;;;;;;14.11;89.09;95733.91;5028305;28;20064;-77
2021/09/08 08:27:08;;;;;;;24.00;13.07;;;;;;;14.29;87.54;95732.31;5030567;28;20046;-77
2021/09/08 08:29:34;;;;;;;22.30;12.80;;;;;;;14.34;87.26;95732.25;5026689;28;20045;-76
2021/09/08 08:31:59;;;;;;;28.90;14.27;;;;;;;14.51;86.20;95730.94;5020881;28;20099;-78
2021/09/08 08:34:25;;;;;;;24.15;13.25;;;;;;;14.94;84.88;95738.78;5031107;28;20520;-77
2021/09/08 08:36:51;;;;;;;23.48;12.95;;;;;;;14.88;85.21;95734.63;5020501;28;20049;-76
2021/09/08 08:39:16;;;;;;;24.05;11.98;;;;;;;14.99;85.16;95736.00;5025600;28;20041;-76
2021/09/08 08:41:42;;;;;;;24.17;12.82;;;;;;;14.95;83.77;95734.25;5027175;28;20044;-76
2021/09/08 08:44:10;;;;;;;21.33;12.43;;;;;;;15.09;85.52;95728.97;5030366;28;20045;-77
2021/09/08 08:46:36;;;;;;;18.85;11.13;;;;;;;15.15;84.64;95733.09;5009391;28;20045;-77
2021/09/08 08:49:02;;;;;;;20.42;11.70;;;;;;;15.26;83.54;95723.88;5020429;28;20410;-77
2021/09/08 08:51:28;;;;;;;26.23;11.85;;;;;;;15.36;82.95;95722.91;5030499;28;20049;-75
2021/09/08 08:53:53;;;;;;;24.58;12.15;;;;;;;15.34;82.76;95720.56;5008494;28;20049;-75
2021/09/08 08:56:20;;;;;;;24.58;12.38;;;;;;;15.37;82.84;95725.28;5016468;28;20455;-77
2021/09/08 08:58:46;;;;;;;21.10;12.00;;;;;;;15.45;83.82;95720.38;5030221;28;20100;-75
2021/09/08 09:01:22;;;;;;;20.88;11.60;;;;;;;15.63;82.85;95714.16;5019598;28;20478;-75
2021/09/08 09:04:10;;;;;;;22.35;12.07;;;;;;;15.83;81.31;95709.53;5010308;28;20066;-76
2021/09/08 09:06:42;;;;;;;18.65;11.50;;;;;;;15.93;80.91;95717.28;5025749;28;20046;-76
2021/09/08 09:09:16;;;;;;;20.25;11.02;;;;;;;16.05;81.36;95717.56;5019684;28;20045;-77
2021/09/08 09:11:44;;;;;;;19.38;10.85;;;;;;;16.36;80.75;95711.53;5019917;28;20439;-78
2021/09/08 09:14:12;;;;;;;18.98;11.35;;;;;;;16.24;81.14;95714.75;5028549;28;20041;-76
2021/09/08 09:16:39;;;;;;;19.58;11.23;;;;;;;16.40;78.98;95707.22;5026435;28;20045;-78
2021/09/08 09:19:06;;;;;;;17.60;11.30;;;;;;;16.49;78.13;95711.81;5027995;28;20084;-77
2021/09/08 09:21:32;;;;;;;17.30;10.95;;;;;;;16.55;78.23;95705.28;5040512;28;20044;-77
2021/09/08 09:24:00;;;;;;;20.35;11.07;;;;;;;16.73;78.46;95698.22;5027290;28;20411;-77
2021/09/08 09:26:37;;;;;;;20.02;10.60;;;;;;;17.34;75.21;95706.50;5029387;28;20103;-79
2021/09/08 09:29:10;;;;;;;20.38;10.60;;;;;;;17.25;78.32;95697.69;5020961;28;20065;-78
2021/09/08 09:31:56;;;;;;;20.58;11.23;;;;;;;17.25;76.85;95693.16;5023304;28;20042;-80
2021/09/08 09:34:23;;;;;;;23.38;11.40;;;;;;;17.17;74.71;95693.13;5025854;28;20052;-79
2021/09/08 09:36:57;;;;;;;21.85;11.77;;;;;;;17.35;74.08;95694.75;5038454;28;20530;-78
2021/09/08 09:39:27;;;;;;;20.83;11.40;;;;;;;17.31;76.63;95685.81;5050157;28;20099;-81
2021/09/08 09:41:53;;;;;;;23.83;12.65;;;;;;;17.48;76.65;95685.09;5023184;28;20099;-82
2021/09/08 09:44:18;;;;;;;23.83;13.13;;;;;;;17.99;76.66;95688.22;5012557;28;20450;-79
2021/09/08 09:46:46;;;;;;;20.08;12.35;;;;;;;18.05;76.54;95686.94;5030217;28;20042;-80
2021/09/08 09:49:13;;;;;;;21.27;12.70;;;;;;;17.97;72.68;95675.22;5026731;28;20046;-79
2021/09/08 09:51:40;;;;;;;21.13;12.02;;;;;;;18.10;72.43;95678.81;5027065;28;20037;-78
2021/09/08 09:54:06;;;;;;;20.75;11.43;;;;;;;18.59;71.27;95675.16;5026214;28;20581;-77
2021/09/08 09:56:32;;;;;;;18.95;11.25;;;;;;;18.95;71.06;95674.00;5022540;28;20045;-76
2021/09/08 09:58:58;;;;;;;18.92;11.25;;;;;;;19.37;68.35;95674.16;5036419;28;20552;-78
2021/09/08 10:01:25;;;;;;;21.20;12.05;;;;;;;19.34;68.49;95672.13;5029235;28;20048;-79
2021/09/08 10:03:51;;;;;;;20.25;12.98;;;;;;;19.20;67.01;95670.44;5028715;28;20049;-77
2021/09/08 10:06:18;;;;;;;21.02;12.32;;;;;;;19.55;66.31;95656.94;5022539;28;20046;-77
2021/09/08 10:08:48;;;;;;;18.45;12.18;;;;;;;19.76;64.85;95658.09;5026982;28;20037;-77
2021/09/08 10:11:20;;;;;;;21.38;11.80;;;;;;;20.12;66.31;95660.19;5021201;28;20427;-77
2021/09/08 10:13:52;;;;;;;19.42;12.18;;;;;;;20.38;65.30;95661.84;5009625;28;20042;-78
2021/09/08 10:16:22;;;;;;;18.75;11.60;;;;;;;20.76;62.70;95660.91;5013939;28;20538;-79
2021/09/08 10:18:48;;;;;;;18.95;11.63;;;;;;;20.66;63.21;95645.22;5029151;28;20038;-77
2021/09/08 10:21:19;;;;;;;21.20;11.63;;;;;;;21.16;61.47;95652.25;5028659;28;20384;-78
2021/09/08 10:24:05;;;;;;;18.55;11.43;;;;;;;22.00;59.27;95645.59;5010643;28;20462;-77
2021/09/08 10:26:34;;;;;;;17.77;10.25;;;;;;;21.84;59.06;95640.19;5029196;28;20539;-78
2021/09/08 10:29:08;;;;;;;22.13;11.02;;;;;;;21.61;60.41;95640.66;5028876;28;20046;-78
2021/09/08 10:31:43;;;;;;;16.13;10.30;;;;;;;22.45;56.36;95633.06;5018792;28;20050;-79
2021/09/08 10:34:11;;;;;;;16.20;11.02;;;;;;;22.12;56.12;95634.06;5029798;28;20561;-78
2021/09/08 10:36:39;;;;;;;16.80;10.55;;;;;;;21.78;56.96;95628.16;5030078;28;20044;-78
2021/09/08 10:39:06;;;;;;;13.73;9.40;;;;;;;21.93;56.44;95629.31;5019296;28;20038;-78
2021/09/08 10:41:54;;;;;;;15.00;9.00;;;;;;;23.46;54.12;95627.47;5021424;28;20049;-82
2021/09/08 10:45:04;;;;;;;12.32;9.13;;;;;;;22.70;52.84;95622.19;5003493;28;20069;-78
2021/09/08 10:47:37;;;;;;;13.77;9.32;;;;;;;24.11;51.21;95620.81;5019963;28;20061;-76
2021/09/08 10:50:05;;;;;;;15.40;9.20;;;;;;;23.31;53.98;95618.31;5028089;28;20061;-76
2021/09/08 10:52:36;;;;;;;16.42;9.90;;;;;;;24.36;51.31;95615.91;5027364;28;20664;-76
2021/09/08 10:55:02;;;;;;;14.40;9.75;;;;;;;24.02;51.06;95618.31;5028307;28;20048;-74
2021/09/08 10:57:49;;;;;;;14.45;9.68;;;;;;;25.18;48.56;95610.38;5028457;28;20042;-74
2021/09/08 11:00:30;;;;;;;12.68;8.45;;;;;;;24.76;48.77;95605.88;5026563;28;20049;-75
2021/09/08 11:02:56;;;;;;;15.05;9.02;;;;;;;25.29;49.60;95605.94;5014612;28;20049;-75
2021/09/08 11:05:21;;;;;;;14.70;9.00;;;;;;;26.13;47.96;95602.44;5028181;28;20564;-75
2021/09/08 11:07:50;;;;;;;15.93;9.80;;;;;;;24.68;49.11;95595.00;5010072;28;20525;-74
2021/09/08 11:10:29;;;;;;;14.02;9.57;;;;;;;24.52;49.92;95602.34;5008118;28;20046;-74
2021/09/08 11:13:00;;;;;;;21.88;9.50;;;;;;;24.95;49.08;95592.34;5010589;28;20049;-74
2021/09/08 11:15:36;;;;;;;11.15;8.27;;;;;;;26.15;46.53;95589.38;5028163;28;20422;-73
2021/09/08 11:18:06;;;;;;;13.35;8.57;;;;;;;24.97;47.68;95584.69;5017999;28;20597;-85
2021/09/08 11:20:32;;;;;;;13.18;8.57;;;;;;;24.70;48.02;95586.56;5016287;28;20049;-85